Time;durP1;ratioP1;P1;durP2;ratioP2;P2;SDS_P1;SDS_P2;PMS_P1;PMS_P2;Temp;Humidity;BMP_temperature;BMP_pressure;BME280_temperature;BME280_humidity;BME280_pressure;Samples;Min_cycle;Max_cycle;Signal;HPM_P1;HPM_P2
2022/09/11 00:01:54;;;;;;;30.00;25.42;;;14.90;99.90;;;;;;5001568;28;20040;-78
2022/09/11 00:04:20;;;;;;;26.70;23.17;;;14.80;99.90;;;;;;4999178;28;20080;-78
2022/09/11 00:06:45;;;;;;;28.17;22.80;;;14.80;99.90;;;;;;5028013;28;20098;-78
2022/09/11 00:09:12;;;;;;;25.42;22.58;;;14.80;99.90;;;;;;4999001;28;20094;-78
2022/09/11 00:11:41;;;;;;;27.88;23.83;;;14.80;99.90;;;;;;4998257;28;20045;-78
2022/09/11 00:14:16;;;;;;;35.03;29.67;;;14.80;99.90;;;;;;5001148;28;20065;-78
2022/09/11 00:16:45;;;;;;;29.10;25.10;;;14.80;99.90;;;;;;5014586;28;20041;-78
2022/09/11 00:19:14;;;;;;;33.20;27.27;;;14.70;99.90;;;;;;5001035;28;20053;-78
2022/09/11 00:21:40;;;;;;;32.83;26.73;;;14.70;99.90;;;;;;5014124;28;20045;-78
2022/09/11 00:24:08;;;;;;;26.13;22.52;;;14.60;99.90;;;;;;5014201;28;20081;-78
2022/09/11 00:26:34;;;;;;;25.38;22.60;;;14.60;99.90;;;;;;5009928;28;20045;-78
2022/09/11 00:29:00;;;;;;;26.50;22.88;;;14.70;99.90;;;;;;4998632;28;20045;-78
2022/09/11 00:31:27;;;;;;;33.85;29.15;;;14.70;99.90;;;;;;5014274;28;20046;-78
2022/09/11 00:33:53;;;;;;;37.15;29.73;;;14.70;99.90;;;;;;5018098;28;20029;-78
2022/09/11 00:36:25;;;;;;;35.03;29.02;;;14.60;99.90;;;;;;5021088;28;20510;-78
2022/09/11 00:38:52;;;;;;;36.05;29.00;;;14.60;99.90;;;;;;5019254;28;20034;-78
2022/09/11 00:41:23;;;;;;;27.05;23.73;;;14.50;99.90;;;;;;5003353;28;20033;-78
2022/09/11 00:43:54;;;;;;;26.63;22.95;;;14.50;99.90;;;;;;5004793;28;20068;-78
2022/09/11 00:46:22;;;;;;;27.48;23.85;;;14.40;99.90;;;;;;5021177;28;20095;-78
2022/09/11 00:48:48;;;;;;;28.35;24.50;;;14.50;99.90;;;;;;5020854;28;20037;-78
2022/09/11 00:51:18;;;;;;;29.65;24.40;;;14.50;99.90;;;;;;5014673;28;20095;-78
2022/09/11 00:53:46;;;;;;;32.55;28.60;;;14.50;99.90;;;;;;5037666;28;20481;-78
2022/09/11 00:56:12;;;;;;;25.98;22.85;;;14.50;99.90;;;;;;5021091;28;20504;-78
2022/09/11 00:58:43;;;;;;;25.17;22.42;;;14.40;99.90;;;;;;4997728;28;20508;-78
2022/09/11 01:01:09;;;;;;;26.40;23.38;;;14.40;99.90;;;;;;5021366;28;20042;-78
2022/09/11 01:03:35;;;;;;;32.38;26.10;;;14.40;99.90;;;;;;5020672;28;20485;-78
2022/09/11 01:06:03;;;;;;;30.98;25.52;;;14.40;99.90;;;;;;5004982;28;20523;-78
2022/09/11 01:08:29;;;;;;;31.50;26.88;;;14.40;99.90;;;;;;5020518;28;20057;-78
2022/09/11 01:11:13;;;;;;;24.92;21.05;;;14.40;99.90;;;;;;5017882;28;20034;-77
2022/09/11 01:13:48;;;;;;;29.13;23.65;;;14.30;99.90;;;;;;5020633;28;20091;-77
2022/09/11 01:16:48;;;;;;;29.15;24.75;;;14.30;99.90;;;;;;5007934;28;20172;-78
2022/09/11 01:19:36;;;;;;;32.22;26.73;;;14.30;99.90;;;;;;5007284;28;20496;-78
2022/09/11 01:22:27;;;;;;;26.73;22.95;;;14.20;99.90;;;;;;5004015;28;20056;-78
2022/09/11 01:25:21;;;;;;;28.38;23.80;;;14.20;99.90;;;;;;5008165;28;20123;-78
2022/09/11 01:27:50;;;;;;;31.25;26.55;;;14.20;99.90;;;;;;5020287;28;20046;-77
2022/09/11 01:30:21;;;;;;;26.58;23.30;;;14.10;99.90;;;;;;5020767;28;20072;-78
2022/09/11 01:32:58;;;;;;;25.40;22.38;;;14.10;99.90;;;;;;5003869;28;20029;-78
2022/09/11 01:36:02;;;;;;;23.27;20.77;;;14.10;99.90;;;;;;5020856;28;20045;-78
2022/09/11 01:38:45;;;;;;;23.50;19.38;;;14.10;99.90;;;;;;4998674;28;20373;-78
2022/09/11 01:41:32;;;;;;;21.55;18.63;;;14.10;99.90;;;;;;5037160;28;20037;-77
2022/09/11 01:44:06;;;;;;;27.80;23.02;;;14.10;99.90;;;;;;5007371;28;20049;-78
2022/09/11 01:46:39;;;;;;;21.00;18.73;;;14.10;99.90;;;;;;5002342;28;20516;-78
2022/09/11 01:49:24;;;;;;;28.55;24.10;;;14.10;99.90;;;;;;5018404;28;20496;-78
2022/09/11 01:51:54;;;;;;;24.23;21.63;;;14.00;99.90;;;;;;4998621;28;20045;-78
2022/09/11 01:54:23;;;;;;;30.15;25.80;;;13.90;99.90;;;;;;4999627;28;20046;-78
2022/09/11 01:56:59;;;;;;;30.48;25.30;;;13.90;99.90;;;;;;5017141;28;20382;-77
2022/09/11 01:59:36;;;;;;;32.97;27.38;;;13.90;99.90;;;;;;5017711;28;20048;-78
2022/09/11 02:02:09;;;;;;;31.33;26.63;;;13.90;99.90;;;;;;5017097;28;20037;-78
2022/09/11 02:04:43;;;;;;;27.23;24.08;;;13.80;99.90;;;;;;5001334;28;20489;-78
2022/09/11 02:07:14;;;;;;;26.00;23.13;;;13.70;99.90;;;;;;5016150;28;20065;-77
2022/09/11 02:09:43;;;;;;;;;;;13.70;99.90;;;;;;5017889;28;20484;-78
2022/09/11 02:12:15;;;;;;;27.83;24.00;;;13.70;99.90;;;;;;5016840;28;20368;-78
2022/09/11 02:14:45;;;;;;;24.35;21.55;;;13.70;99.90;;;;;;5017329;28;20053;-78
2022/09/11 02:17:28;;;;;;;23.75;20.58;;;13.70;99.90;;;;;;5000359;28;20044;-78
2022/09/11 02:19:57;;;;;;;27.17;24.17;;;13.70;99.90;;;;;;5017136;28;20045;-78
2022/09/11 02:22:23;;;;;;;27.85;24.73;;;13.80;99.90;;;;;;5016237;28;20382;-78
2022/09/11 02:24:50;;;;;;;27.88;23.88;;;13.80;99.90;;;;;;4994401;28;20049;-78
2022/09/11 02:27:22;;;;;;;32.83;27.77;;;13.70;99.90;;;;;;5016379;28;20049;-78
2022/09/11 02:29:49;;;;;;;30.42;25.13;;;13.70;99.90;;;;;;5016827;28;20038;-77
2022/09/11 02:32:17;;;;;;;30.10;25.48;;;13.60;99.90;;;;;;4997123;28;20076;-78
2022/09/11 02:34:47;;;;;;;26.40;23.60;;;13.60;99.90;;;;;;5016596;28;20069;-77
2022/09/11 02:37:37;;;;;;;26.80;23.48;;;13.50;99.90;;;;;;5000056;28;20370;-78
2022/09/11 02:40:25;;;;;;;26.92;24.05;;;13.50;99.90;;;;;;5000837;28;20480;-77
2022/09/11 02:43:21;;;;;;;28.10;23.00;;;13.40;99.90;;;;;;5016526;28;20497;-78
2022/09/11 02:45:47;;;;;;;27.80;24.58;;;13.40;99.90;;;;;;5016619;28;20053;-77
2022/09/11 02:48:36;;;;;;;24.85;22.20;;;13.50;99.90;;;;;;5016202;28;20516;-77
2022/09/11 02:51:11;;;;;;;27.63;23.65;;;13.50;99.90;;;;;;5000223;28;20069;-77
2022/09/11 02:53:49;;;;;;;24.85;20.92;;;13.50;99.90;;;;;;5015404;28;20052;-77
2022/09/11 02:56:37;;;;;;;25.77;22.75;;;13.50;99.90;;;;;;5015995;28;20124;-78
2022/09/11 02:59:09;;;;;;;21.10;18.90;;;13.50;99.90;;;;;;5016224;28;20045;-78
2022/09/11 03:01:50;;;;;;;19.35;17.35;;;13.50;99.90;;;;;;5015991;28;20045;-78
2022/09/11 03:04:17;;;;;;;24.10;21.55;;;13.50;99.90;;;;;;5004601;28;20087;-77
2022/09/11 03:06:44;;;;;;;19.83;17.73;;;13.50;99.90;;;;;;5014880;28;20045;-77
2022/09/11 03:09:09;;;;;;;18.88;16.88;;;13.50;99.90;;;;;;5016384;28;20392;-77
2022/09/11 03:11:35;;;;;;;19.67;17.63;;;13.50;99.90;;;;;;4999559;28;20034;-78
2022/09/11 03:14:01;;;;;;;17.63;15.73;;;13.60;99.90;;;;;;4995791;28;20485;-78
2022/09/11 03:16:26;;;;;;;16.38;14.65;;;13.60;99.90;;;;;;4987409;28;20050;-78
2022/09/11 03:18:52;;;;;;;17.83;15.93;;;13.60;99.90;;;;;;4976218;28;20041;-78
2022/09/11 03:21:18;;;;;;;15.90;14.20;;;13.60;99.90;;;;;;4991748;28;20121;-78
2022/09/11 03:23:43;;;;;;;16.55;14.93;;;13.60;99.90;;;;;;4995402;28;20041;-78
2022/09/11 03:26:10;;;;;;;16.85;15.15;;;13.60;99.90;;;;;;4967587;28;20041;-77
2022/09/11 03:28:35;;;;;;;20.15;16.65;;;13.60;99.90;;;;;;4986008;28;20497;-77
2022/09/11 03:31:01;;;;;;;18.58;16.73;;;13.60;99.90;;;;;;4993006;28;20046;-78
2022/09/11 03:33:27;;;;;;;19.50;16.75;;;13.50;99.90;;;;;;4954431;28;20096;-78
2022/09/11 03:35:53;;;;;;;19.35;17.38;;;13.50;99.90;;;;;;4994725;28;20037;-77
2022/09/11 03:38:19;;;;;;;17.52;15.82;;;13.40;99.90;;;;;;4983938;28;20046;-78
2022/09/11 03:40:45;;;;;;;21.02;18.60;;;13.40;99.90;;;;;;4973095;28;20042;-77
2022/09/11 03:43:15;;;;;;;20.85;18.42;;;13.40;99.90;;;;;;4974105;28;20038;-78
2022/09/11 03:45:41;;;;;;;16.77;15.07;;;13.30;99.90;;;;;;4996358;28;20570;-78
2022/09/11 03:48:07;;;;;;;18.52;16.63;;;13.30;99.90;;;;;;4974765;28;20057;-78
2022/09/11 03:50:34;;;;;;;19.20;17.27;;;13.30;99.90;;;;;;4995187;28;20120;-77
2022/09/11 03:53:00;;;;;;;14.57;13.07;;;13.30;99.90;;;;;;4995206;28;20034;-77
2022/09/11 03:55:26;;;;;;;14.88;13.38;;;13.30;99.90;;;;;;4983826;28;20038;-77
2022/09/11 03:57:51;;;;;;;17.90;16.13;;;13.30;99.90;;;;;;4986476;28;20049;-77
2022/09/11 04:00:17;;;;;;;18.40;16.40;;;13.30;99.90;;;;;;5012378;28;20069;-77
2022/09/11 04:02:43;;;;;;;19.08;17.08;;;13.20;99.90;;;;;;5006195;28;20038;-77
2022/09/11 04:05:09;;;;;;;21.00;18.83;;;13.20;99.90;;;;;;4979118;28;20053;-78
2022/09/11 04:07:35;;;;;;;18.23;16.40;;;13.20;99.90;;;;;;5001392;28;20428;-77
2022/09/11 04:10:01;;;;;;;17.67;15.88;;;13.10;99.90;;;;;;5002593;28;20044;-77
2022/09/11 04:12:27;;;;;;;19.80;17.80;;;13.10;99.90;;;;;;4980589;28;20063;-77
2022/09/11 04:14:53;;;;;;;20.48;18.30;;;13.00;99.90;;;;;;5006693;28;20065;-78
2022/09/11 04:17:19;;;;;;;20.80;18.63;;;13.10;99.90;;;;;;5028137;28;20412;-78
2022/09/11 04:19:44;;;;;;;20.65;18.52;;;13.10;99.90;;;;;;5031667;28;20037;-78
2022/09/11 04:22:10;;;;;;;18.63;16.73;;;13.00;99.90;;;;;;4981908;28;20128;-78
2022/09/11 04:24:36;;;;;;;18.98;16.98;;;13.00;99.90;;;;;;5014342;28;20084;-78
2022/09/11 04:27:02;;;;;;;19.15;17.15;;;13.00;99.90;;;;;;4998165;28;20103;-78
2022/09/11 04:29:28;;;;;;;20.30;17.40;;;13.00;99.90;;;;;;4998113;28;20030;-78
2022/09/11 04:31:54;;;;;;;17.48;15.77;;;13.00;99.90;;;;;;4989069;28;20409;-78
2022/09/11 04:34:20;;;;;;;20.42;18.42;;;13.00;99.90;;;;;;5011122;28;20113;-78
2022/09/11 04:36:46;;;;;;;16.80;15.18;;;13.00;99.90;;;;;;5014205;28;20111;-78
2022/09/11 04:39:12;;;;;;;19.17;17.17;;;13.00;99.90;;;;;;4982738;28;20044;-78
2022/09/11 04:41:37;;;;;;;18.40;16.50;;;13.00;99.90;;;;;;5019616;28;20053;-78
2022/09/11 04:44:03;;;;;;;19.80;17.67;;;13.00;99.90;;;;;;5026798;28;20064;-78
2022/09/11 04:46:29;;;;;;;19.30;17.35;;;13.00;99.90;;;;;;5014223;28;20056;-78
2022/09/11 04:49:01;;;;;;;16.52;14.93;;;13.00;99.90;;;;;;4995519;28;20045;-78
2022/09/11 04:51:29;;;;;;;19.70;17.70;;;13.00;99.90;;;;;;5007511;28;20079;-78
2022/09/11 04:53:56;;;;;;;19.02;17.05;;;13.00;99.90;;;;;;4997226;28;20400;-78
2022/09/11 04:56:31;;;;;;;17.63;15.77;;;13.00;99.90;;;;;;5005904;28;20040;-78
2022/09/11 04:58:59;;;;;;;19.05;17.15;;;12.90;99.90;;;;;;5014443;28;20037;-78
2022/09/11 05:01:27;;;;;;;19.42;17.52;;;13.00;99.90;;;;;;5026860;28;20048;-78
2022/09/11 05:03:52;;;;;;;17.60;15.85;;;12.90;99.90;;;;;;5015935;28;20503;-78
2022/09/11 05:06:18;;;;;;;18.38;16.48;;;12.90;99.90;;;;;;4981972;28;20033;-78
2022/09/11 05:08:46;;;;;;;17.85;16.05;;;12.90;99.90;;;;;;5013311;28;20045;-78
2022/09/11 05:11:14;;;;;;;15.55;13.95;;;12.90;99.90;;;;;;5014699;28;20033;-78
2022/09/11 05:13:40;;;;;;;22.40;20.20;;;12.90;99.90;;;;;;4997499;28;20045;-78
2022/09/11 05:16:11;;;;;;;19.88;17.95;;;12.90;99.90;;;;;;5000944;28;20041;-78
2022/09/11 05:18:39;;;;;;;14.68;13.23;;;12.90;99.90;;;;;;5019245;28;20503;-78
2022/09/11 05:21:08;;;;;;;19.42;17.17;;;12.90;99.90;;;;;;5031575;28;20120;-78
2022/09/11 05:23:34;;;;;;;17.02;15.32;;;12.90;99.90;;;;;;5017332;28;20046;-78
2022/09/11 05:26:02;;;;;;;17.75;16.05;;;12.90;99.90;;;;;;5017974;28;20041;-79
2022/09/11 05:28:34;;;;;;;17.77;15.97;;;12.80;99.90;;;;;;5002317;28;20046;-78
2022/09/11 05:31:01;;;;;;;17.33;15.63;;;12.80;99.90;;;;;;4984084;28;20040;-78
2022/09/11 05:33:27;;;;;;;17.15;15.45;;;12.80;99.90;;;;;;4999058;28;20524;-78
2022/09/11 05:35:54;;;;;;;19.63;17.58;;;12.80;99.90;;;;;;5014016;28;20069;-78
2022/09/11 05:38:21;;;;;;;16.52;14.93;;;12.90;99.90;;;;;;5009981;28;20075;-78
2022/09/11 05:40:49;;;;;;;18.23;16.42;;;12.90;99.90;;;;;;5017097;28;20485;-78
2022/09/11 05:43:16;;;;;;;17.45;15.75;;;12.90;99.90;;;;;;5005484;28;20041;-77
2022/09/11 05:45:44;;;;;;;20.70;18.60;;;12.90;99.90;;;;;;5036733;28;20079;-77
2022/09/11 05:48:10;;;;;;;20.00;17.92;;;12.90;99.90;;;;;;5016926;28;20484;-80
2022/09/11 05:50:37;;;;;;;20.35;18.27;;;13.00;99.90;;;;;;5022457;28;20123;-77
2022/09/11 05:53:07;;;;;;;19.95;17.90;;;13.00;99.90;;;;;;5016040;28;20098;-77
2022/09/11 05:55:36;;;;;;;19.45;17.48;;;13.00;99.90;;;;;;4996563;28;20120;-78
2022/09/11 05:58:02;;;;;;;19.67;17.50;;;13.10;99.90;;;;;;4995715;28;20485;-78
2022/09/11 06:00:29;;;;;;;20.35;18.35;;;13.10;99.90;;;;;;5006151;28;20094;-76
2022/09/11 06:02:55;;;;;;;19.67;17.58;;;13.10;99.90;;;;;;5021404;28;20185;-77
2022/09/11 06:05:20;;;;;;;22.08;19.73;;;13.20;99.90;;;;;;4998818;28;20651;-76
2022/09/11 06:07:46;;;;;;;22.52;20.23;;;13.20;99.90;;;;;;5007885;28;20080;-76
2022/09/11 06:10:12;;;;;;;19.50;17.58;;;13.30;99.90;;;;;;4999742;28;20033;-76
2022/09/11 06:12:37;;;;;;;20.92;18.83;;;13.30;99.90;;;;;;5011434;28;20139;-77
2022/09/11 06:15:04;;;;;;;21.10;18.95;;;13.40;99.90;;;;;;5038122;28;20152;-76
2022/09/11 06:17:29;;;;;;;20.55;18.55;;;13.60;99.90;;;;;;4966405;28;20536;-76
2022/09/11 06:19:55;;;;;;;23.65;21.35;;;13.80;99.90;;;;;;5015633;28;20041;-77
2022/09/11 06:22:21;;;;;;;23.05;20.67;;;14.20;99.90;;;;;;4998738;28;20053;-77
2022/09/11 06:24:48;;;;;;;22.80;20.50;;;14.70;99.90;;;;;;5009456;28;20045;-76
2022/09/11 06:27:14;;;;;;;22.63;20.35;;;15.10;99.90;;;;;;5032640;28;20564;-79
2022/09/11 06:29:42;;;;;;;20.05;18.00;;;15.60;99.90;;;;;;5000453;28;20492;-78
2022/09/11 06:32:08;;;;;;;18.65;16.75;;;15.90;99.90;;;;;;5015593;28;20048;-78
2022/09/11 06:34:34;;;;;;;18.85;17.05;;;16.30;99.90;;;;;;5016407;28;20037;-76
2022/09/11 06:37:00;;;;;;;19.15;17.25;;;16.70;99.90;;;;;;5002145;28;20045;-78
2022/09/11 06:39:25;;;;;;;17.35;15.68;;;17.00;99.90;;;;;;5032912;28;20271;-77
2022/09/11 06:41:52;;;;;;;20.30;18.20;;;16.90;99.90;;;;;;5016138;28;20067;-77
2022/09/11 06:44:18;;;;;;;18.45;16.63;;;16.60;99.90;;;;;;5016843;28;20049;-78
2022/09/11 06:46:44;;;;;;;16.35;14.85;;;16.60;99.90;;;;;;5015877;28;20072;-77
2022/09/11 06:49:10;;;;;;;15.18;13.68;;;17.10;99.90;;;;;;5016625;28;20037;-77
2022/09/11 06:51:38;;;;;;;14.45;13.05;;;17.90;99.90;;;;;;5015506;28;20048;-77
2022/09/11 06:54:04;;;;;;;14.40;13.00;;;18.60;99.90;;;;;;5035066;28;20092;-77
2022/09/11 06:56:33;;;;;;;13.88;12.40;;;19.00;99.90;;;;;;5016288;28;20042;-77
2022/09/11 06:58:59;;;;;;;13.88;12.45;;;19.50;99.90;;;;;;5014909;28;20048;-77
2022/09/11 07:01:25;;;;;;;13.10;11.80;;;19.90;99.90;;;;;;5016129;28;20038;-78
2022/09/11 07:03:53;;;;;;;12.43;11.20;;;20.20;99.90;;;;;;5015787;28;20041;-77
2022/09/11 07:06:22;;;;;;;12.27;10.98;;;20.40;99.90;;;;;;5016453;28;20068;-78
2022/09/11 07:08:59;;;;;;;12.35;11.10;;;20.90;99.90;;;;;;5014796;28;20412;-78
2022/09/11 07:11:25;;;;;;;13.75;11.00;;;21.30;99.90;;;;;;5000305;28;20049;-77
2022/09/11 07:13:51;;;;;;;11.82;10.63;;;21.50;99.90;;;;;;4999223;28;20068;-78
2022/09/11 07:16:17;;;;;;;11.60;10.40;;;21.80;99.90;;;;;;5027057;28;20034;-78
2022/09/11 07:18:45;;;;;;;12.50;10.90;;;22.30;99.90;;;;;;5015729;28;20052;-79
2022/09/11 07:21:14;;;;;;;12.07;10.55;;;22.50;99.90;;;;;;4999418;28;20116;-78
2022/09/11 07:23:41;;;;;;;10.88;9.60;;;22.80;99.90;;;;;;5015207;28;20124;-77
2022/09/11 07:26:10;;;;;;;13.52;10.70;;;22.80;99.90;;;;;;4985371;28;20037;-78
2022/09/11 07:28:37;;;;;;;11.20;9.98;;;22.90;99.90;;;;;;5015691;28;20412;-79
2022/09/11 07:31:15;;;;;;;12.68;10.68;;;22.90;99.90;;;;;;5010114;28;20041;-78
2022/09/11 07:33:47;;;;;;;12.30;10.55;;;22.70;99.90;;;;;;5012571;28;20034;-76
2022/09/11 07:36:16;;;;;;;14.18;10.65;;;23.10;99.90;;;;;;5014613;28;20076;-77
2022/09/11 07:38:43;;;;;;;12.32;11.02;;;23.30;99.90;;;;;;5011927;28;20397;-76
2022/09/11 07:41:09;;;;;;;14.02;12.48;;;23.40;99.90;;;;;;5017237;28;20051;-77
2022/09/11 07:43:40;;;;;;;14.48;11.35;;;23.00;99.90;;;;;;5015662;28;20443;-77
2022/09/11 07:46:08;;;;;;;13.65;11.68;;;22.70;99.90;;;;;;5017268;28;20480;-77
2022/09/11 07:48:35;;;;;;;14.35;11.73;;;22.50;99.90;;;;;;5014431;28;20056;-77
2022/09/11 07:51:03;;;;;;;14.40;10.45;;;22.50;99.90;;;;;;4998480;28;20041;-77
2022/09/11 07:53:34;;;;;;;12.68;10.77;;;22.60;99.90;;;;;;5004750;28;20038;-77
2022/09/11 07:56:04;;;;;;;13.35;11.02;;;22.70;99.90;;;;;;5011912;28;20057;-77
2022/09/11 07:58:32;;;;;;;14.20;11.15;;;22.50;99.90;;;;;;5011624;28;20060;-77
2022/09/11 08:00:58;;;;;;;12.93;11.38;;;22.00;99.90;;;;;;4995199;28;20037;-77
2022/09/11 08:03:24;;;;;;;14.23;10.93;;;21.80;99.90;;;;;;5012434;28;20536;-77
2022/09/11 08:05:50;;;;;;;13.00;10.80;;;21.70;99.90;;;;;;4999628;28;20505;-77
2022/09/11 08:08:15;;;;;;;13.30;11.38;;;21.60;99.90;;;;;;4998465;28;20029;-77
2022/09/11 08:10:41;;;;;;;14.35;12.40;;;21.30;99.90;;;;;;4992640;28;20037;-77
2022/09/11 08:13:07;;;;;;;13.07;11.30;;;21.50;99.90;;;;;;4992138;28;20045;-77
2022/09/11 08:15:34;;;;;;;16.23;13.60;;;21.40;99.90;;;;;;5015580;28;20417;-77
2022/09/11 08:18:00;;;;;;;13.85;10.68;;;21.40;99.90;;;;;;5003228;28;20507;-77
2022/09/11 08:20:25;;;;;;;12.07;10.20;;;21.50;99.90;;;;;;4986839;28;20033;-78
2022/09/11 08:22:51;;;;;;;13.27;10.80;;;21.60;99.90;;;;;;5001760;28;20512;-77
2022/09/11 08:25:17;;;;;;;13.63;11.70;;;21.20;99.90;;;;;;5000256;28;20091;-77
2022/09/11 08:27:42;;;;;;;12.70;9.32;;;21.00;99.90;;;;;;4985929;28;20038;-77
2022/09/11 08:30:09;;;;;;;13.25;9.73;;;21.00;99.90;;;;;;4988314;28;20635;-78
2022/09/11 08:32:35;;;;;;;12.63;11.00;;;20.90;99.90;;;;;;5000047;28;20129;-77
2022/09/11 08:35:00;;;;;;;15.20;12.43;;;20.80;99.90;;;;;;5000337;28;20464;-77
2022/09/11 08:37:26;;;;;;;15.15;11.75;;;20.70;99.90;;;;;;4989309;28;20052;-77
2022/09/11 08:39:52;;;;;;;14.23;12.35;;;20.70;99.90;;;;;;5000286;28;20049;-78
2022/09/11 08:42:17;;;;;;;14.40;11.93;;;20.80;99.90;;;;;;4987828;28;20096;-77
2022/09/11 08:44:55;;;;;;;15.80;14.07;;;20.80;99.90;;;;;;5016174;28;20038;-77
2022/09/11 08:47:24;;;;;;;15.85;12.43;;;21.00;99.90;;;;;;5021124;28;20099;-78
2022/09/11 08:50:00;;;;;;;17.73;14.15;;;21.10;99.90;;;;;;5017876;28;20038;-78
2022/09/11 08:52:26;;;;;;;17.83;14.73;;;21.40;99.90;;;;;;5007919;28;20041;-77
2022/09/11 08:54:56;;;;;;;14.80;12.75;;;21.20;99.90;;;;;;4997825;28;20096;-78
2022/09/11 08:57:50;;;;;;;14.95;13.35;;;21.30;99.90;;;;;;5029519;28;20052;-77
2022/09/11 09:00:29;;;;;;;14.18;12.68;;;20.90;99.90;;;;;;5026915;28;20041;-78
2022/09/11 09:03:17;;;;;;;16.40;13.02;;;21.00;99.90;;;;;;5032951;28;20121;-78
2022/09/11 09:05:57;;;;;;;15.98;14.27;;;21.10;99.90;;;;;;5028708;28;20126;-78
2022/09/11 09:08:26;;;;;;;15.70;14.00;;;20.90;99.90;;;;;;5026387;28;20041;-77
2022/09/11 09:11:02;;;;;;;13.98;12.45;;;21.00;99.90;;;;;;5014266;28;20041;-77
2022/09/11 09:13:51;;;;;;;16.23;14.48;;;20.90;99.90;;;;;;5012734;28;20064;-78
2022/09/11 09:16:39;;;;;;;16.27;14.57;;;21.10;99.90;;;;;;5031865;28;20118;-78
2022/09/11 09:19:15;;;;;;;17.27;14.73;;;21.30;99.90;;;;;;5033036;28;20057;-78
2022/09/11 09:22:02;;;;;;;16.45;14.75;;;21.50;99.90;;;;;;5033901;28;20097;-79
2022/09/11 09:24:48;;;;;;;15.85;13.70;;;21.30;99.90;;;;;;5043577;28;20049;-79
2022/09/11 09:27:32;;;;;;;13.77;11.55;;;21.50;99.90;;;;;;5035209;28;20077;-78
2022/09/11 09:30:04;;;;;;;16.67;13.75;;;21.50;99.90;;;;;;5054296;28;20044;-79
2022/09/11 09:32:40;;;;;;;15.40;13.10;;;21.40;99.90;;;;;;5036566;28;20037;-79
2022/09/11 09:35:22;;;;;;;16.05;14.25;;;21.50;99.90;;;;;;5037176;28;20100;-79
2022/09/11 09:37:47;;;;;;;14.23;11.85;;;21.80;99.90;;;;;;5018526;28;20105;-78
2022/09/11 09:40:17;;;;;;;15.13;12.32;;;22.00;99.90;;;;;;5002622;28;20045;-79
2022/09/11 09:43:09;;;;;;;13.73;10.75;;;21.60;99.90;;;;;;5044481;28;20048;-78
2022/09/11 09:45:48;;;;;;;12.93;10.55;;;21.90;99.90;;;;;;5018381;28;20107;-79
2022/09/11 09:48:13;;;;;;;12.07;8.80;;;22.00;99.90;;;;;;5004311;28;20045;-79
2022/09/11 09:50:43;;;;;;;12.65;8.57;;;22.10;99.90;;;;;;5022036;28;20060;-78
2022/09/11 09:53:37;;;;;;;12.85;9.00;;;22.20;99.90;;;;;;5020463;28;20052;-79
2022/09/11 09:56:11;;;;;;;8.85;5.18;;;22.50;99.90;;;;;;5012061;28;20037;-79
2022/09/11 09:58:45;;;;;;;9.60;7.30;;;22.50;99.90;;;;;;5021752;28;20120;-78
2022/09/11 10:01:38;;;;;;;9.30;6.60;;;22.70;99.90;;;;;;5003498;28;20045;-79
2022/09/11 10:04:15;;;;;;;6.65;4.03;;;22.90;99.90;;;;;;5017248;28;20048;-79
2022/09/11 10:06:44;;;;;;;8.63;5.75;;;22.70;99.90;;;;;;5020635;28;20044;-79
2022/09/11 10:09:27;;;;;;;8.95;5.90;;;22.80;99.90;;;;;;5017700;28;20038;-78
2022/09/11 10:12:06;;;;;;;7.85;5.25;;;23.00;99.90;;;;;;5002675;28;20084;-79
2022/09/11 10:14:49;;;;;;;8.25;5.43;;;22.50;99.90;;;;;;5032205;28;20069;-79
2022/09/11 10:17:30;;;;;;;8.00;4.18;;;22.70;99.90;;;;;;5004483;28;20132;-79
2022/09/11 10:20:24;;;;;;;6.32;3.30;;;22.30;99.90;;;;;;5017133;28;20200;-79
2022/09/11 10:22:52;;;;;;;9.27;4.93;;;22.70;99.90;;;;;;5015912;28;20057;-79
2022/09/11 10:25:26;;;;;;;7.05;4.38;;;22.70;99.90;;;;;;5001398;28;20049;-79
2022/09/11 10:28:09;;;;;;;8.63;4.55;;;22.90;99.90;;;;;;5019845;28;20049;-79
2022/09/11 10:30:38;;;;;;;6.68;3.20;;;23.10;99.90;;;;;;5005632;28;20041;-79
2022/09/11 10:33:28;;;;;;;6.25;2.40;;;23.30;99.90;;;;;;5019827;28;20041;-79
2022/09/11 10:35:55;;;;;;;7.63;3.40;;;23.50;99.90;;;;;;5017980;28;20034;-79
2022/09/11 10:38:35;;;;;;;6.32;3.20;;;23.40;98.90;;;;;;5019099;28;20094;-80
2022/09/11 10:41:04;;;;;;;5.82;2.30;;;23.50;99.90;;;;;;5019896;28;20056;-79
2022/09/11 10:43:41;;;;;;;7.45;2.80;;;23.50;98.60;;;;;;5012510;28;20038;-79
2022/09/11 10:46:27;;;;;;;6.63;3.08;;;23.50;99.50;;;;;;5032999;28;20046;-79
2022/09/11 10:49:02;;;;;;;6.63;3.00;;;23.70;97.70;;;;;;5032745;28;20037;-79
2022/09/11 10:51:30;;;;;;;6.15;2.80;;;23.20;97.70;;;;;;5015855;28;20426;-79
2022/09/11 10:53:58;;;;;;;8.32;3.80;;;23.10;98.10;;;;;;5020529;28;20079;-79
2022/09/11 10:56:26;;;;;;;6.22;2.80;;;23.20;97.90;;;;;;5006648;28;20042;-79
2022/09/11 10:58:57;;;;;;;7.25;2.60;;;23.40;98.70;;;;;;5003299;28;20045;-79
2022/09/11 11:01:23;;;;;;;6.60;2.90;;;23.40;98.70;;;;;;5022126;28;20057;-79
2022/09/11 11:03:49;;;;;;;6.13;2.58;;;23.60;98.00;;;;;;4999025;28;20037;-79
2022/09/11 11:06:33;;;;;;;6.32;2.80;;;23.70;97.30;;;;;;5019007;28;20042;-79
2022/09/11 11:09:47;;;;;;;6.00;2.78;;;23.60;96.00;;;;;;5012598;28;20044;-79
2022/09/11 11:12:54;;;;;;;7.10;2.65;;;23.50;97.40;;;;;;4925310;28;20043;-79
2022/09/11 11:15:31;;;;;;;6.60;3.42;;;23.70;97.40;;;;;;4961760;28;20070;-79
2022/09/11 11:17:57;;;;;;;6.05;2.70;;;23.80;96.30;;;;;;5016708;28;20049;-79
2022/09/11 11:20:58;;;;;;;6.10;2.75;;;23.80;97.00;;;;;;5015268;28;20587;-79
2022/09/11 11:23:32;;;;;;;6.30;2.40;;;23.90;95.60;;;;;;5016895;28;20490;-79
2022/09/11 11:26:23;;;;;;;5.65;2.40;;;24.00;96.20;;;;;;5022702;28;20108;-79
2022/09/11 11:28:58;;;;;;;6.13;2.30;;;24.20;95.70;;;;;;5015873;28;20035;-79
2022/09/11 11:31:40;;;;;;;6.00;2.33;;;24.20;95.00;;;;;;5016502;28;20034;-79
2022/09/11 11:34:25;;;;;;;6.13;2.70;;;24.30;95.60;;;;;;5028742;28;20041;-79
2022/09/11 11:37:03;;;;;;;7.13;2.60;;;24.30;95.80;;;;;;5018862;28;20038;-79
2022/09/11 11:39:36;;;;;;;5.40;2.33;;;24.30;96.10;;;;;;5009439;28;20503;-79
2022/09/11 11:42:06;;;;;;;5.18;2.20;;;24.20;95.20;;;;;;5005028;28;20477;-79
2022/09/11 11:44:43;;;;;;;6.60;2.60;;;24.00;95.70;;;;;;5017928;28;20037;-79
2022/09/11 11:47:10;;;;;;;4.97;1.98;;;24.00;94.00;;;;;;5019740;28;20124;-79
2022/09/11 11:49:55;;;;;;;5.22;1.90;;;23.90;95.00;;;;;;5018926;28;20044;-79
2022/09/11 11:52:30;;;;;;;5.57;2.60;;;23.90;93.60;;;;;;5019746;28;20040;-79
2022/09/11 11:55:16;;;;;;;6.90;2.35;;;23.90;94.80;;;;;;5021818;28;20037;-79
2022/09/11 11:58:06;;;;;;;6.25;2.50;;;23.70;95.50;;;;;;5019439;28;20516;-79
2022/09/11 12:00:40;;;;;;;5.45;2.20;;;23.50;95.70;;;;;;5019862;28;20382;-79
2022/09/11 12:03:33;;;;;;;4.63;2.00;;;23.50;96.20;;;;;;5022379;28;20496;-79
2022/09/11 12:05:59;;;;;;;5.60;1.90;;;23.70;96.30;;;;;;5019915;28;20049;-79
2022/09/11 12:08:26;;;;;;;5.55;2.50;;;23.70;94.10;;;;;;5005005;28;20063;-79
2022/09/11 12:11:06;;;;;;;4.57;2.15;;;23.90;95.40;;;;;;5003063;28;20041;-79
2022/09/11 12:13:35;;;;;;;5.30;2.10;;;24.10;94.80;;;;;;5016570;28;20080;-79
2022/09/11 12:16:16;;;;;;;5.30;2.20;;;24.30;95.00;;;;;;5029954;28;20041;-79
2022/09/11 12:19:03;;;;;;;4.57;1.83;;;24.20;93.00;;;;;;5017393;28;20041;-79
2022/09/11 12:21:30;;;;;;;5.88;1.92;;;24.10;94.10;;;;;;5016476;28;20049;-79
2022/09/11 12:23:55;;;;;;;4.65;1.70;;;24.00;94.40;;;;;;5019139;28;20120;-79
2022/09/11 12:26:25;;;;;;;5.07;2.00;;;23.60;94.20;;;;;;5019560;28;20584;-79
2022/09/11 12:29:13;;;;;;;6.15;2.40;;;23.30;94.20;;;;;;5002079;28;20064;-79
2022/09/11 12:31:51;;;;;;;4.97;1.85;;;22.90;94.10;;;;;;5033615;28;20535;-79
2022/09/11 12:34:22;;;;;;;6.25;1.90;;;22.90;95.70;;;;;;5014391;28;20057;-79
2022/09/11 12:37:01;;;;;;;4.93;1.90;;;22.70;97.60;;;;;;5004612;28;20548;-79
2022/09/11 12:39:44;;;;;;;5.20;2.08;;;22.60;97.80;;;;;;5010140;28;20044;-79
2022/09/11 12:42:22;;;;;;;7.05;2.10;;;22.60;99.00;;;;;;5016667;28;20500;-79
2022/09/11 12:44:48;;;;;;;5.63;1.85;;;22.50;97.80;;;;;;5016942;28;20087;-79
2022/09/11 12:47:27;;;;;;;4.63;1.88;;;22.50;97.70;;;;;;5019617;28;20045;-79
2022/09/11 12:50:13;;;;;;;4.88;2.00;;;22.50;98.00;;;;;;5003383;28;20120;-79
2022/09/11 12:52:45;;;;;;;7.35;2.10;;;22.30;98.30;;;;;;5019063;28;20033;-79
2022/09/11 12:55:52;;;;;;;5.18;2.00;;;22.20;98.20;;;;;;5029031;28;20042;-79
2022/09/11 12:58:17;;;;;;;5.90;2.10;;;22.00;98.60;;;;;;5002860;28;20045;-79